sensor_id;sensor_type;location;lat;lon;timestamp;P1;durP1;ratioP1;P2;durP2;ratioP2
13347;SDS011;6743;49.934;9.138;2023-05-02T00:00:56;2.42;;;2.08;;
13347;SDS011;6743;49.934;9.138;2023-05-02T00:03:23;2.20;;;2.10;;
13347;SDS011;6743;49.934;9.138;2023-05-02T00:05:50;2.03;;;1.92;;
13347;SDS011;6743;49.934;9.138;2023-05-02T00:08:16;2.40;;;2.20;;
13347;SDS011;6743;49.934;9.138;2023-05-02T00:10:42;1.83;;;1.73;;
13347;SDS011;6743;49.934;9.138;2023-05-02T00:13:08;2.55;;;2.33;;
13347;SDS011;6743;49.934;9.138;2023-05-02T00:15:34;3.30;;;2.12;;
13347;SDS011;6743;49.934;9.138;2023-05-02T00:18:00;2.40;;;2.20;;
13347;SDS011;6743;49.934;9.138;2023-05-02T00:20:26;2.80;;;2.08;;
13347;SDS011;6743;49.934;9.138;2023-05-02T00:22:54;2.20;;;2.00;;
13347;SDS011;6743;49.934;9.138;2023-05-02T00:25:20;1.98;;;1.87;;
13347;SDS011;6743;49.934;9.138;2023-05-02T00:27:46;2.25;;;2.05;;
13347;SDS011;6743;49.934;9.138;2023-05-02T00:30:15;2.12;;;2.00;;
13347;SDS011;6743;49.934;9.138;2023-05-02T00:32:41;2.28;;;2.08;;
13347;SDS011;6743;49.934;9.138;2023-05-02T00:35:07;2.40;;;2.20;;
13347;SDS011;6743;49.934;9.138;2023-05-02T00:37:34;2.60;;;2.40;;
13347;SDS011;6743;49.934;9.138;2023-05-02T00:40:00;2.25;;;2.05;;
13347;SDS011;6743;49.934;9.138;2023-05-02T00:42:26;2.55;;;2.33;;
13347;SDS011;6743;49.934;9.138;2023-05-02T00:44:55;2.17;;;2.08;;
13347;SDS011;6743;49.934;9.138;2023-05-02T00:47:21;2.40;;;2.12;;
13347;SDS011;6743;49.934;9.138;2023-05-02T00:49:48;2.33;;;1.85;;
13347;SDS011;6743;49.934;9.138;2023-05-02T00:52:14;2.40;;;2.17;;
13347;SDS011;6743;49.934;9.138;2023-05-02T00:54:41;2.33;;;1.90;;
13347;SDS011;6743;49.934;9.138;2023-05-02T00:57:08;2.00;;;1.90;;
13347;SDS011;6743;49.934;9.138;2023-05-02T00:59:34;2.22;;;2.03;;
13347;SDS011;6743;49.934;9.138;2023-05-02T01:02:04;2.70;;;2.50;;
13347;SDS011;6743;49.934;9.138;2023-05-02T01:04:39;2.50;;;2.30;;
13347;SDS011;6743;49.934;9.138;2023-05-02T01:07:20;2.62;;;2.42;;
13347;SDS011;6743;49.934;9.138;2023-05-02T01:10:03;2.37;;;1.95;;
13347;SDS011;6743;49.934;9.138;2023-05-02T01:12:40;2.17;;;2.08;;
13347;SDS011;6743;49.934;9.138;2023-05-02T01:15:08;1.95;;;1.85;;
13347;SDS011;6743;49.934;9.138;2023-05-02T01:17:37;2.22;;;1.90;;
13347;SDS011;6743;49.934;9.138;2023-05-02T01:20:05;2.25;;;2.05;;
13347;SDS011;6743;49.934;9.138;2023-05-02T01:22:36;2.00;;;1.90;;
13347;SDS011;6743;49.934;9.138;2023-05-02T01:25:11;2.50;;;2.30;;
13347;SDS011;6743;49.934;9.138;2023-05-02T01:27:46;2.78;;;2.55;;
13347;SDS011;6743;49.934;9.138;2023-05-02T01:30:21;2.30;;;2.10;;
13347;SDS011;6743;49.934;9.138;2023-05-02T01:32:51;2.40;;;2.20;;
13347;SDS011;6743;49.934;9.138;2023-05-02T01:35:20;2.25;;;2.05;;
13347;SDS011;6743;49.934;9.138;2023-05-02T01:37:47;2.28;;;2.10;;
13347;SDS011;6743;49.934;9.138;2023-05-02T01:40:15;3.00;;;2.45;;
13347;SDS011;6743;49.934;9.138;2023-05-02T01:42:43;2.40;;;2.20;;
13347;SDS011;6743;49.934;9.138;2023-05-02T01:45:12;2.37;;;2.17;;
13347;SDS011;6743;49.934;9.138;2023-05-02T01:47:40;2.03;;;1.85;;
13347;SDS011;6743;49.934;9.138;2023-05-02T01:50:10;2.62;;;2.20;;
13347;SDS011;6743;49.934;9.138;2023-05-02T01:52:40;2.53;;;2.25;;
13347;SDS011;6743;49.934;9.138;2023-05-02T01:55:07;2.95;;;2.45;;
13347;SDS011;6743;49.934;9.138;2023-05-02T01:57:38;2.03;;;1.92;;
13347;SDS011;6743;49.934;9.138;2023-05-02T02:00:07;2.25;;;2.05;;
13347;SDS011;6743;49.934;9.138;2023-05-02T02:02:35;2.75;;;2.37;;
13347;SDS011;6743;49.934;9.138;2023-05-02T02:05:04;1.95;;;1.83;;
13347;SDS011;6743;49.934;9.138;2023-05-02T02:07:33;2.05;;;1.87;;
13347;SDS011;6743;49.934;9.138;2023-05-02T02:09:59;2.28;;;1.73;;
13347;SDS011;6743;49.934;9.138;2023-05-02T02:12:27;2.10;;;2.00;;
13347;SDS011;6743;49.934;9.138;2023-05-02T02:14:55;2.28;;;2.10;;
13347;SDS011;6743;49.934;9.138;2023-05-02T02:17:25;1.85;;;1.75;;
13347;SDS011;6743;49.934;9.138;2023-05-02T02:19:56;2.50;;;2.12;;
13347;SDS011;6743;49.934;9.138;2023-05-02T02:22:28;2.25;;;2.08;;
13347;SDS011;6743;49.934;9.138;2023-05-02T02:24:55;2.70;;;2.50;;
13347;SDS011;6743;49.934;9.138;2023-05-02T02:27:23;2.50;;;2.30;;
13347;SDS011;6743;49.934;9.138;2023-05-02T02:29:50;2.30;;;2.10;;
13347;SDS011;6743;49.934;9.138;2023-05-02T02:32:16;2.12;;;1.95;;
13347;SDS011;6743;49.934;9.138;2023-05-02T02:34:41;2.53;;;2.10;;
13347;SDS011;6743;49.934;9.138;2023-05-02T02:37:09;1.87;;;1.77;;
13347;SDS011;6743;49.934;9.138;2023-05-02T02:39:43;2.30;;;2.10;;
13347;SDS011;6743;49.934;9.138;2023-05-02T02:42:17;2.15;;;1.95;;
13347;SDS011;6743;49.934;9.138;2023-05-02T02:44:51;2.47;;;2.22;;
13347;SDS011;6743;49.934;9.138;2023-05-02T02:47:22;2.35;;;1.95;;
13347;SDS011;6743;49.934;9.138;2023-05-02T02:49:55;1.92;;;1.83;;
13347;SDS011;6743;49.934;9.138;2023-05-02T02:52:32;2.83;;;2.00;;
13347;SDS011;6743;49.934;9.138;2023-05-02T02:55:15;2.17;;;1.90;;
13347;SDS011;6743;49.934;9.138;2023-05-02T02:57:50;3.80;;;2.33;;
13347;SDS011;6743;49.934;9.138;2023-05-02T03:00:23;2.33;;;2.12;;
13347;SDS011;6743;49.934;9.138;2023-05-02T03:02:51;3.12;;;2.22;;
13347;SDS011;6743;49.934;9.138;2023-05-02T03:05:19;2.92;;;2.20;;
13347;SDS011;6743;49.934;9.138;2023-05-02T03:07:46;2.25;;;2.10;;
13347;SDS011;6743;49.934;9.138;2023-05-02T03:10:13;2.58;;;1.98;;
13347;SDS011;6743;49.934;9.138;2023-05-02T03:12:40;2.22;;;2.03;;
13347;SDS011;6743;49.934;9.138;2023-05-02T03:15:12;2.22;;;2.05;;
13347;SDS011;6743;49.934;9.138;2023-05-02T03:17:47;2.75;;;2.50;;
13347;SDS011;6743;49.934;9.138;2023-05-02T03:20:13;1.65;;;1.55;;
13347;SDS011;6743;49.934;9.138;2023-05-02T03:22:39;2.05;;;1.92;;
13347;SDS011;6743;49.934;9.138;2023-05-02T03:25:05;2.47;;;2.17;;
13347;SDS011;6743;49.934;9.138;2023-05-02T03:27:32;2.00;;;1.75;;
13347;SDS011;6743;49.934;9.138;2023-05-02T03:29:58;1.83;;;1.73;;
13347;SDS011;6743;49.934;9.138;2023-05-02T03:32:24;2.17;;;1.98;;
13347;SDS011;6743;49.934;9.138;2023-05-02T03:34:50;1.95;;;1.85;;
13347;SDS011;6743;49.934;9.138;2023-05-02T03:37:16;1.75;;;1.65;;
13347;SDS011;6743;49.934;9.138;2023-05-02T03:39:42;2.33;;;2.15;;
13347;SDS011;6743;49.934;9.138;2023-05-02T03:42:08;1.90;;;1.80;;
13347;SDS011;6743;49.934;9.138;2023-05-02T03:44:35;1.73;;;1.62;;
13347;SDS011;6743;49.934;9.138;2023-05-02T03:47:01;2.10;;;1.83;;
13347;SDS011;6743;49.934;9.138;2023-05-02T03:49:27;1.80;;;1.70;;
13347;SDS011;6743;49.934;9.138;2023-05-02T03:51:53;1.80;;;1.70;;
13347;SDS011;6743;49.934;9.138;2023-05-02T03:54:19;1.85;;;1.75;;
13347;SDS011;6743;49.934;9.138;2023-05-02T03:56:45;2.40;;;2.17;;
13347;SDS011;6743;49.934;9.138;2023-05-02T03:59:12;2.30;;;1.85;;
13347;SDS011;6743;49.934;9.138;2023-05-02T04:01:40;2.15;;;1.95;;
13347;SDS011;6743;49.934;9.138;2023-05-02T04:04:06;2.03;;;1.87;;
13347;SDS011;6743;49.934;9.138;2023-05-02T04:06:32;2.65;;;2.17;;
13347;SDS011;6743;49.934;9.138;2023-05-02T04:08:58;1.90;;;1.70;;
13347;SDS011;6743;49.934;9.138;2023-05-02T04:11:25;2.20;;;2.00;;
13347;SDS011;6743;49.934;9.138;2023-05-02T04:13:51;2.80;;;1.87;;
13347;SDS011;6743;49.934;9.138;2023-05-02T04:16:17;3.05;;;2.40;;
13347;SDS011;6743;49.934;9.138;2023-05-02T04:18:44;2.40;;;2.20;;
13347;SDS011;6743;49.934;9.138;2023-05-02T04:21:10;2.70;;;2.47;;
13347;SDS011;6743;49.934;9.138;2023-05-02T04:23:36;2.47;;;2.27;;
13347;SDS011;6743;49.934;9.138;2023-05-02T04:26:01;2.60;;;2.33;;
13347;SDS011;6743;49.934;9.138;2023-05-02T04:28:28;3.53;;;2.53;;
13347;SDS011;6743;49.934;9.138;2023-05-02T04:30:54;2.15;;;1.95;;
13347;SDS011;6743;49.934;9.138;2023-05-02T04:33:21;2.53;;;2.33;;
13347;SDS011;6743;49.934;9.138;2023-05-02T04:35:48;2.80;;;2.57;;
13347;SDS011;6743;49.934;9.138;2023-05-02T04:38:14;2.80;;;2.58;;
13347;SDS011;6743;49.934;9.138;2023-05-02T04:40:41;3.37;;;2.65;;
13347;SDS011;6743;49.934;9.138;2023-05-02T04:43:07;2.60;;;2.40;;
13347;SDS011;6743;49.934;9.138;2023-05-02T04:45:34;3.45;;;2.50;;
13347;SDS011;6743;49.934;9.138;2023-05-02T04:48:00;2.53;;;2.30;;
13347;SDS011;6743;49.934;9.138;2023-05-02T04:50:26;1.98;;;1.83;;
13347;SDS011;6743;49.934;9.138;2023-05-02T04:52:53;3.92;;;2.30;;
13347;SDS011;6743;49.934;9.138;2023-05-02T04:55:19;2.53;;;2.30;;
13347;SDS011;6743;49.934;9.138;2023-05-02T04:57:45;2.70;;;2.50;;
13347;SDS011;6743;49.934;9.138;2023-05-02T05:00:12;4.80;;;2.78;;
13347;SDS011;6743;49.934;9.138;2023-05-02T05:02:38;2.97;;;2.53;;
13347;SDS011;6743;49.934;9.138;2023-05-02T05:05:04;3.20;;;2.60;;
13347;SDS011;6743;49.934;9.138;2023-05-02T05:07:30;2.47;;;2.33;;
13347;SDS011;6743;49.934;9.138;2023-05-02T05:09:57;3.12;;;2.83;;
13347;SDS011;6743;49.934;9.138;2023-05-02T05:12:23;4.73;;;2.80;;
13347;SDS011;6743;49.934;9.138;2023-05-02T05:14:49;3.58;;;2.45;;
13347;SDS011;6743;49.934;9.138;2023-05-02T05:17:16;3.78;;;3.17;;
13347;SDS011;6743;49.934;9.138;2023-05-02T05:19:45;3.40;;;2.65;;
13347;SDS011;6743;49.934;9.138;2023-05-02T05:22:11;3.33;;;2.97;;
13347;SDS011;6743;49.934;9.138;2023-05-02T05:24:37;5.22;;;3.45;;
13347;SDS011;6743;49.934;9.138;2023-05-02T05:27:03;3.03;;;2.72;;
13347;SDS011;6743;49.934;9.138;2023-05-02T05:29:30;3.60;;;2.97;;
13347;SDS011;6743;49.934;9.138;2023-05-02T05:31:57;2.80;;;2.55;;
13347;SDS011;6743;49.934;9.138;2023-05-02T05:34:24;3.75;;;3.42;;
13347;SDS011;6743;49.934;9.138;2023-05-02T05:36:51;3.55;;;3.25;;
13347;SDS011;6743;49.934;9.138;2023-05-02T05:39:17;3.35;;;3.05;;
13347;SDS011;6743;49.934;9.138;2023-05-02T05:41:43;4.00;;;3.50;;
13347;SDS011;6743;49.934;9.138;2023-05-02T05:44:11;5.55;;;3.97;;
13347;SDS011;6743;49.934;9.138;2023-05-02T05:46:37;3.85;;;3.42;;
13347;SDS011;6743;49.934;9.138;2023-05-02T05:49:03;7.22;;;4.40;;
13347;SDS011;6743;49.934;9.138;2023-05-02T05:51:29;5.93;;;4.22;;
13347;SDS011;6743;49.934;9.138;2023-05-02T05:53:55;5.25;;;4.53;;
13347;SDS011;6743;49.934;9.138;2023-05-02T05:56:21;6.40;;;4.75;;
13347;SDS011;6743;49.934;9.138;2023-05-02T05:58:47;4.47;;;4.05;;
13347;SDS011;6743;49.934;9.138;2023-05-02T06:01:14;5.60;;;4.25;;
13347;SDS011;6743;49.934;9.138;2023-05-02T06:03:40;4.85;;;4.07;;
13347;SDS011;6743;49.934;9.138;2023-05-02T06:06:06;5.57;;;4.20;;
13347;SDS011;6743;49.934;9.138;2023-05-02T06:08:32;4.93;;;3.95;;
13347;SDS011;6743;49.934;9.138;2023-05-02T06:10:58;6.87;;;4.72;;
13347;SDS011;6743;49.934;9.138;2023-05-02T06:13:24;5.10;;;4.60;;
13347;SDS011;6743;49.934;9.138;2023-05-02T06:15:50;5.12;;;4.37;;
13347;SDS011;6743;49.934;9.138;2023-05-02T06:18:17;5.80;;;4.60;;
13347;SDS011;6743;49.934;9.138;2023-05-02T06:20:43;5.03;;;4.47;;
13347;SDS011;6743;49.934;9.138;2023-05-02T06:23:09;5.05;;;4.07;;
13347;SDS011;6743;49.934;9.138;2023-05-02T06:25:38;6.22;;;4.70;;
13347;SDS011;6743;49.934;9.138;2023-05-02T06:28:04;6.40;;;4.43;;
13347;SDS011;6743;49.934;9.138;2023-05-02T06:30:30;6.57;;;4.90;;
13347;SDS011;6743;49.934;9.138;2023-05-02T06:32:56;6.40;;;5.30;;
13347;SDS011;6743;49.934;9.138;2023-05-02T06:35:23;5.05;;;4.45;;
13347;SDS011;6743;49.934;9.138;2023-05-02T06:37:49;6.82;;;4.93;;
13347;SDS011;6743;49.934;9.138;2023-05-02T06:40:15;6.90;;;5.32;;
13347;SDS011;6743;49.934;9.138;2023-05-02T06:42:41;6.85;;;4.90;;
13347;SDS011;6743;49.934;9.138;2023-05-02T06:45:07;6.62;;;4.50;;
13347;SDS011;6743;49.934;9.138;2023-05-02T06:47:33;6.57;;;5.30;;
13347;SDS011;6743;49.934;9.138;2023-05-02T06:49:59;7.40;;;5.18;;
13347;SDS011;6743;49.934;9.138;2023-05-02T06:52:26;6.68;;;5.93;;
13347;SDS011;6743;49.934;9.138;2023-05-02T06:54:52;9.02;;;5.72;;
13347;SDS011;6743;49.934;9.138;2023-05-02T06:57:18;7.18;;;5.65;;
13347;SDS011;6743;49.934;9.138;2023-05-02T06:59:44;8.18;;;5.97;;
13347;SDS011;6743;49.934;9.138;2023-05-02T07:02:11;9.68;;;5.30;;
13347;SDS011;6743;49.934;9.138;2023-05-02T07:04:37;8.52;;;5.57;;
13347;SDS011;6743;49.934;9.138;2023-05-02T07:07:03;7.00;;;6.07;;
13347;SDS011;6743;49.934;9.138;2023-05-02T07:09:30;9.30;;;6.62;;
13347;SDS011;6743;49.934;9.138;2023-05-02T07:11:56;10.57;;;6.20;;
13347;SDS011;6743;49.934;9.138;2023-05-02T07:14:22;8.68;;;6.03;;
13347;SDS011;6743;49.934;9.138;2023-05-02T07:16:48;7.90;;;5.57;;
13347;SDS011;6743;49.934;9.138;2023-05-02T07:19:14;7.72;;;5.90;;
13347;SDS011;6743;49.934;9.138;2023-05-02T07:21:40;9.55;;;6.18;;
13347;SDS011;6743;49.934;9.138;2023-05-02T07:24:06;9.52;;;6.20;;
13347;SDS011;6743;49.934;9.138;2023-05-02T07:26:33;7.57;;;5.62;;
13347;SDS011;6743;49.934;9.138;2023-05-02T07:28:59;7.20;;;4.50;;
13347;SDS011;6743;49.934;9.138;2023-05-02T07:31:25;9.65;;;5.80;;
13347;SDS011;6743;49.934;9.138;2023-05-02T07:33:51;7.03;;;5.37;;
13347;SDS011;6743;49.934;9.138;2023-05-02T07:36:17;8.63;;;5.60;;
13347;SDS011;6743;49.934;9.138;2023-05-02T07:38:43;6.30;;;4.78;;
13347;SDS011;6743;49.934;9.138;2023-05-02T07:41:09;5.90;;;4.93;;
13347;SDS011;6743;49.934;9.138;2023-05-02T07:43:38;9.73;;;5.40;;
13347;SDS011;6743;49.934;9.138;2023-05-02T07:46:05;8.48;;;5.18;;
13347;SDS011;6743;49.934;9.138;2023-05-02T07:48:31;7.50;;;4.85;;
13347;SDS011;6743;49.934;9.138;2023-05-02T07:51:04;6.75;;;4.93;;
13347;SDS011;6743;49.934;9.138;2023-05-02T07:53:30;7.80;;;4.70;;
13347;SDS011;6743;49.934;9.138;2023-05-02T07:55:56;9.05;;;5.18;;
13347;SDS011;6743;49.934;9.138;2023-05-02T07:58:23;7.43;;;4.87;;
13347;SDS011;6743;49.934;9.138;2023-05-02T08:00:49;6.97;;;5.00;;
13347;SDS011;6743;49.934;9.138;2023-05-02T08:03:16;7.43;;;4.93;;
13347;SDS011;6743;49.934;9.138;2023-05-02T08:05:42;7.70;;;5.20;;
13347;SDS011;6743;49.934;9.138;2023-05-02T08:08:08;6.72;;;4.47;;
13347;SDS011;6743;49.934;9.138;2023-05-02T08:10:34;7.53;;;5.00;;
13347;SDS011;6743;49.934;9.138;2023-05-02T08:13:00;5.70;;;4.55;;
13347;SDS011;6743;49.934;9.138;2023-05-02T08:15:26;4.68;;;3.87;;
13347;SDS011;6743;49.934;9.138;2023-05-02T08:17:53;6.68;;;4.30;;
13347;SDS011;6743;49.934;9.138;2023-05-02T08:20:19;6.20;;;4.87;;
13347;SDS011;6743;49.934;9.138;2023-05-02T08:22:46;6.35;;;4.57;;
13347;SDS011;6743;49.934;9.138;2023-05-02T08:25:13;7.35;;;4.87;;
13347;SDS011;6743;49.934;9.138;2023-05-02T08:27:39;5.68;;;4.20;;
13347;SDS011;6743;49.934;9.138;2023-05-02T08:30:06;5.57;;;4.68;;
13347;SDS011;6743;49.934;9.138;2023-05-02T08:32:33;5.95;;;4.45;;
13347;SDS011;6743;49.934;9.138;2023-05-02T08:35:01;8.65;;;4.60;;
13347;SDS011;6743;49.934;9.138;2023-05-02T08:37:27;6.18;;;4.32;;
13347;SDS011;6743;49.934;9.138;2023-05-02T08:39:53;6.93;;;4.70;;
13347;SDS011;6743;49.934;9.138;2023-05-02T08:42:20;6.40;;;4.68;;
13347;SDS011;6743;49.934;9.138;2023-05-02T08:44:46;8.18;;;4.75;;
13347;SDS011;6743;49.934;9.138;2023-05-02T08:47:13;7.00;;;4.00;;
13347;SDS011;6743;49.934;9.138;2023-05-02T08:49:41;6.03;;;4.12;;
13347;SDS011;6743;49.934;9.138;2023-05-02T08:52:08;6.95;;;4.12;;
13347;SDS011;6743;49.934;9.138;2023-05-02T08:54:36;6.72;;;4.20;;
13347;SDS011;6743;49.934;9.138;2023-05-02T08:57:03;6.62;;;4.22;;
13347;SDS011;6743;49.934;9.138;2023-05-02T08:59:29;7.20;;;4.40;;
13347;SDS011;6743;49.934;9.138;2023-05-02T09:01:58;6.60;;;4.28;;
13347;SDS011;6743;49.934;9.138;2023-05-02T09:04:30;4.57;;;3.37;;
13347;SDS011;6743;49.934;9.138;2023-05-02T09:06:58;4.35;;;3.55;;
13347;SDS011;6743;49.934;9.138;2023-05-02T09:09:25;3.42;;;2.85;;
13347;SDS011;6743;49.934;9.138;2023-05-02T09:11:53;3.47;;;2.85;;
13347;SDS011;6743;49.934;9.138;2023-05-02T09:14:19;4.25;;;3.47;;
13347;SDS011;6743;49.934;9.138;2023-05-02T09:16:45;3.40;;;2.60;;
13347;SDS011;6743;49.934;9.138;2023-05-02T09:19:12;3.42;;;2.87;;
13347;SDS011;6743;49.934;9.138;2023-05-02T09:21:49;4.93;;;3.53;;
13347;SDS011;6743;49.934;9.138;2023-05-02T09:24:16;4.80;;;3.53;;
13347;SDS011;6743;49.934;9.138;2023-05-02T09:26:53;3.65;;;3.10;;
13347;SDS011;6743;49.934;9.138;2023-05-02T09:29:22;4.62;;;3.92;;
13347;SDS011;6743;49.934;9.138;2023-05-02T09:31:48;7.55;;;3.83;;
13347;SDS011;6743;49.934;9.138;2023-05-02T09:34:15;4.20;;;3.25;;
13347;SDS011;6743;49.934;9.138;2023-05-02T09:36:42;6.70;;;4.03;;
13347;SDS011;6743;49.934;9.138;2023-05-02T09:39:09;5.45;;;3.65;;
13347;SDS011;6743;49.934;9.138;2023-05-02T09:41:40;5.10;;;3.28;;
13347;SDS011;6743;49.934;9.138;2023-05-02T09:44:09;5.37;;;3.78;;
13347;SDS011;6743;49.934;9.138;2023-05-02T09:46:38;5.93;;;3.80;;
13347;SDS011;6743;49.934;9.138;2023-05-02T09:49:05;6.87;;;4.72;;
13347;SDS011;6743;49.934;9.138;2023-05-02T09:51:31;5.32;;;3.47;;
13347;SDS011;6743;49.934;9.138;2023-05-02T09:53:57;7.15;;;4.15;;
13347;SDS011;6743;49.934;9.138;2023-05-02T09:56:23;4.37;;;3.33;;
13347;SDS011;6743;49.934;9.138;2023-05-02T09:58:49;4.78;;;3.40;;
13347;SDS011;6743;49.934;9.138;2023-05-02T10:01:16;4.65;;;3.15;;
13347;SDS011;6743;49.934;9.138;2023-05-02T10:03:45;5.00;;;3.50;;
13347;SDS011;6743;49.934;9.138;2023-05-02T10:06:12;3.40;;;3.10;;
13347;SDS011;6743;49.934;9.138;2023-05-02T10:08:40;4.95;;;3.33;;
13347;SDS011;6743;49.934;9.138;2023-05-02T10:11:08;4.78;;;3.42;;
13347;SDS011;6743;49.934;9.138;2023-05-02T10:13:37;5.22;;;3.45;;
13347;SDS011;6743;49.934;9.138;2023-05-02T10:16:06;4.68;;;3.33;;
13347;SDS011;6743;49.934;9.138;2023-05-02T10:18:40;4.18;;;3.08;;
13347;SDS011;6743;49.934;9.138;2023-05-02T10:21:10;3.58;;;2.95;;
13347;SDS011;6743;49.934;9.138;2023-05-02T10:23:37;5.15;;;3.08;;
13347;SDS011;6743;49.934;9.138;2023-05-02T10:26:07;4.90;;;3.40;;
13347;SDS011;6743;49.934;9.138;2023-05-02T10:28:35;4.53;;;2.92;;
13347;SDS011;6743;49.934;9.138;2023-05-02T10:31:03;4.50;;;2.87;;
13347;SDS011;6743;49.934;9.138;2023-05-02T10:33:30;2.70;;;2.50;;
13347;SDS011;6743;49.934;9.138;2023-05-02T10:35:59;4.10;;;3.00;;
13347;SDS011;6743;49.934;9.138;2023-05-02T10:38:25;3.25;;;2.87;;
13347;SDS011;6743;49.934;9.138;2023-05-02T10:40:52;4.25;;;2.65;;
13347;SDS011;6743;49.934;9.138;2023-05-02T10:43:23;3.35;;;2.78;;
13347;SDS011;6743;49.934;9.138;2023-05-02T10:45:51;3.33;;;2.95;;
13347;SDS011;6743;49.934;9.138;2023-05-02T10:48:18;3.17;;;2.50;;
13347;SDS011;6743;49.934;9.138;2023-05-02T10:50:47;3.05;;;2.75;;
13347;SDS011;6743;49.934;9.138;2023-05-02T10:53:26;4.05;;;2.70;;
13347;SDS011;6743;49.934;9.138;2023-05-02T10:58:43;2.87;;;2.30;;
13347;SDS011;6743;49.934;9.138;2023-05-02T11:04:04;2.12;;;1.98;;
13347;SDS011;6743;49.934;9.138;2023-05-02T11:06:31;2.22;;;2.00;;
13347;SDS011;6743;49.934;9.138;2023-05-02T11:11:56;3.65;;;2.20;;
13347;SDS011;6743;49.934;9.138;2023-05-02T11:17:08;1.77;;;1.67;;
13347;SDS011;6743;49.934;9.138;2023-05-02T11:22:54;1.80;;;1.60;;
13347;SDS011;6743;49.934;9.138;2023-05-02T11:25:29;1.77;;;1.67;;
13347;SDS011;6743;49.934;9.138;2023-05-02T11:27:59;2.58;;;2.15;;
13347;SDS011;6743;49.934;9.138;2023-05-02T11:30:35;2.12;;;1.90;;
13347;SDS011;6743;49.934;9.138;2023-05-02T11:33:15;2.60;;;2.28;;
13347;SDS011;6743;49.934;9.138;2023-05-02T11:35:42;1.45;;;1.35;;
13347;SDS011;6743;49.934;9.138;2023-05-02T11:38:10;2.42;;;1.70;;
13347;SDS011;6743;49.934;9.138;2023-05-02T11:40:38;2.58;;;2.05;;
13347;SDS011;6743;49.934;9.138;2023-05-02T11:43:11;2.95;;;2.03;;
13347;SDS011;6743;49.934;9.138;2023-05-02T11:45:38;1.67;;;1.58;;
13347;SDS011;6743;49.934;9.138;2023-05-02T11:48:05;2.22;;;1.45;;
13347;SDS011;6743;49.934;9.138;2023-05-02T11:50:32;2.10;;;1.90;;
13347;SDS011;6743;49.934;9.138;2023-05-02T11:52:58;4.20;;;2.15;;
13347;SDS011;6743;49.934;9.138;2023-05-02T11:55:25;1.70;;;1.60;;
13347;SDS011;6743;49.934;9.138;2023-05-02T11:57:52;3.08;;;1.95;;
13347;SDS011;6743;49.934;9.138;2023-05-02T12:00:18;2.35;;;1.77;;
13347;SDS011;6743;49.934;9.138;2023-05-02T12:02:51;1.80;;;1.70;;
13347;SDS011;6743;49.934;9.138;2023-05-02T12:05:21;2.03;;;1.75;;
13347;SDS011;6743;49.934;9.138;2023-05-02T12:07:52;3.22;;;1.77;;
13347;SDS011;6743;49.934;9.138;2023-05-02T12:10:18;1.77;;;1.67;;
13347;SDS011;6743;49.934;9.138;2023-05-02T12:12:44;3.85;;;1.92;;
13347;SDS011;6743;49.934;9.138;2023-05-02T12:15:11;1.98;;;1.42;;
13347;SDS011;6743;49.934;9.138;2023-05-02T12:17:38;2.30;;;2.08;;
13347;SDS011;6743;49.934;9.138;2023-05-02T12:20:06;2.08;;;1.90;;
13347;SDS011;6743;49.934;9.138;2023-05-02T12:22:34;4.03;;;2.53;;
13347;SDS011;6743;49.934;9.138;2023-05-02T12:25:01;3.70;;;2.78;;
13347;SDS011;6743;49.934;9.138;2023-05-02T12:27:28;3.22;;;2.35;;
13347;SDS011;6743;49.934;9.138;2023-05-02T12:29:54;2.50;;;1.95;;
13347;SDS011;6743;49.934;9.138;2023-05-02T12:32:31;2.50;;;2.30;;
13347;SDS011;6743;49.934;9.138;2023-05-02T12:34:58;3.40;;;2.47;;
13347;SDS011;6743;49.934;9.138;2023-05-02T12:37:25;4.10;;;2.97;;
13347;SDS011;6743;49.934;9.138;2023-05-02T12:39:52;2.78;;;2.37;;
13347;SDS011;6743;49.934;9.138;2023-05-02T12:42:20;3.08;;;2.40;;
13347;SDS011;6743;49.934;9.138;2023-05-02T12:44:47;2.42;;;2.22;;
13347;SDS011;6743;49.934;9.138;2023-05-02T12:47:16;2.85;;;2.30;;
13347;SDS011;6743;49.934;9.138;2023-05-02T12:49:50;4.47;;;2.67;;
13347;SDS011;6743;49.934;9.138;2023-05-02T12:52:16;5.70;;;2.20;;
13347;SDS011;6743;49.934;9.138;2023-05-02T12:54:43;2.67;;;2.28;;
13347;SDS011;6743;49.934;9.138;2023-05-02T12:57:09;2.58;;;2.20;;
13347;SDS011;6743;49.934;9.138;2023-05-02T12:59:35;3.87;;;2.70;;
13347;SDS011;6743;49.934;9.138;2023-05-02T13:02:02;1.65;;;1.55;;
13347;SDS011;6743;49.934;9.138;2023-05-02T13:04:35;1.20;;;1.10;;
13347;SDS011;6743;49.934;9.138;2023-05-02T13:07:01;1.70;;;1.20;;
13347;SDS011;6743;49.934;9.138;2023-05-02T13:09:27;2.00;;;1.00;;
13347;SDS011;6743;49.934;9.138;2023-05-02T13:11:53;1.37;;;1.23;;
13347;SDS011;6743;49.934;9.138;2023-05-02T13:14:19;1.75;;;1.25;;
13347;SDS011;6743;49.934;9.138;2023-05-02T13:16:45;1.55;;;1.12;;
13347;SDS011;6743;49.934;9.138;2023-05-02T13:19:11;2.00;;;1.40;;
13347;SDS011;6743;49.934;9.138;2023-05-02T13:21:37;1.40;;;1.30;;
13347;SDS011;6743;49.934;9.138;2023-05-02T13:24:04;4.22;;;2.05;;
13347;SDS011;6743;49.934;9.138;2023-05-02T13:26:30;1.30;;;1.20;;
13347;SDS011;6743;49.934;9.138;2023-05-02T13:28:56;2.03;;;1.40;;
13347;SDS011;6743;49.934;9.138;2023-05-02T13:31:22;1.52;;;1.12;;
13347;SDS011;6743;49.934;9.138;2023-05-02T13:33:49;1.50;;;1.40;;
13347;SDS011;6743;49.934;9.138;2023-05-02T13:36:15;1.40;;;1.23;;
13347;SDS011;6743;49.934;9.138;2023-05-02T13:38:41;1.83;;;1.30;;
13347;SDS011;6743;49.934;9.138;2023-05-02T13:41:07;1.10;;;1.00;;
13347;SDS011;6743;49.934;9.138;2023-05-02T13:43:33;1.55;;;1.42;;
13347;SDS011;6743;49.934;9.138;2023-05-02T13:45:59;1.60;;;1.48;;
13347;SDS011;6743;49.934;9.138;2023-05-02T13:48:25;1.25;;;1.15;;
13347;SDS011;6743;49.934;9.138;2023-05-02T13:50:51;1.55;;;1.27;;
13347;SDS011;6743;49.934;9.138;2023-05-02T13:53:17;3.45;;;1.30;;
13347;SDS011;6743;49.934;9.138;2023-05-02T13:55:43;1.58;;;1.10;;
13347;SDS011;6743;49.934;9.138;2023-05-02T13:58:10;1.75;;;1.10;;
13347;SDS011;6743;49.934;9.138;2023-05-02T14:00:36;1.55;;;1.20;;
13347;SDS011;6743;49.934;9.138;2023-05-02T14:03:03;0.85;;;0.85;;
13347;SDS011;6743;49.934;9.138;2023-05-02T14:05:29;0.77;;;0.77;;
13347;SDS011;6743;49.934;9.138;2023-05-02T14:07:55;0.90;;;0.90;;
13347;SDS011;6743;49.934;9.138;2023-05-02T14:10:21;1.00;;;0.88;;
13347;SDS011;6743;49.934;9.138;2023-05-02T14:12:47;0.80;;;0.80;;
13347;SDS011;6743;49.934;9.138;2023-05-02T14:15:14;1.45;;;0.80;;
13347;SDS011;6743;49.934;9.138;2023-05-02T14:17:40;0.80;;;0.80;;
13347;SDS011;6743;49.934;9.138;2023-05-02T14:20:07;0.90;;;0.90;;
13347;SDS011;6743;49.934;9.138;2023-05-02T14:22:35;1.02;;;1.00;;
13347;SDS011;6743;49.934;9.138;2023-05-02T14:25:01;1.00;;;1.00;;
13347;SDS011;6743;49.934;9.138;2023-05-02T14:27:27;1.30;;;1.20;;
13347;SDS011;6743;49.934;9.138;2023-05-02T14:29:53;1.23;;;1.12;;
13347;SDS011;6743;49.934;9.138;2023-05-02T14:32:19;1.05;;;0.95;;
13347;SDS011;6743;49.934;9.138;2023-05-02T14:34:46;1.10;;;1.00;;
13347;SDS011;6743;49.934;9.138;2023-05-02T14:37:12;0.90;;;0.82;;
13347;SDS011;6743;49.934;9.138;2023-05-02T14:39:38;0.62;;;0.62;;
13347;SDS011;6743;49.934;9.138;2023-05-02T14:42:04;0.73;;;0.73;;
13347;SDS011;6743;49.934;9.138;2023-05-02T14:44:30;0.77;;;0.77;;
13347;SDS011;6743;49.934;9.138;2023-05-02T14:46:56;1.05;;;0.98;;
13347;SDS011;6743;49.934;9.138;2023-05-02T14:49:23;0.80;;;0.80;;
13347;SDS011;6743;49.934;9.138;2023-05-02T14:51:49;0.93;;;0.93;;
13347;SDS011;6743;49.934;9.138;2023-05-02T14:54:15;0.88;;;0.88;;
13347;SDS011;6743;49.934;9.138;2023-05-02T14:56:41;1.23;;;1.10;;
13347;SDS011;6743;49.934;9.138;2023-05-02T14:59:07;1.20;;;1.10;;
13347;SDS011;6743;49.934;9.138;2023-05-02T15:01:33;1.10;;;0.90;;
13347;SDS011;6743;49.934;9.138;2023-05-02T15:04:01;1.33;;;1.12;;
13347;SDS011;6743;49.934;9.138;2023-05-02T15:06:28;1.77;;;1.00;;
13347;SDS011;6743;49.934;9.138;2023-05-02T15:08:55;0.90;;;0.90;;
13347;SDS011;6743;49.934;9.138;2023-05-02T15:11:21;0.85;;;0.85;;
13347;SDS011;6743;49.934;9.138;2023-05-02T15:13:47;1.10;;;0.70;;
13347;SDS011;6743;49.934;9.138;2023-05-02T15:16:13;1.02;;;0.90;;